createdAt,value
2023-04-30T00:00:20.275Z,12.15
2023-04-30T00:02:04.765Z,12.17
2023-04-30T00:03:38.315Z,12.17
2023-04-30T00:05:21.204Z,12.18
2023-04-30T00:06:51.060Z,12.14
2023-04-30T00:08:27.214Z,12.12
2023-04-30T00:09:51.590Z,12.11
2023-04-30T00:11:32.720Z,12.09
2023-04-30T00:13:07.257Z,12.08
2023-04-30T00:14:37.179Z,11.99
2023-04-30T00:16:00.826Z,12.04
2023-04-30T00:17:22.378Z,12.05
2023-04-30T00:18:47.311Z,12.04
2023-04-30T00:20:09.025Z,12.05
2023-04-30T00:21:31.060Z,12.03
2023-04-30T00:23:02.655Z,12.06
2023-04-30T00:24:24.335Z,12.05
2023-04-30T00:25:48.683Z,12.04
2023-04-30T00:27:10.239Z,12.02
2023-04-30T00:28:32.162Z,11.98
2023-04-30T00:29:56.798Z,11.93
2023-04-30T00:31:20.860Z,11.91
2023-04-30T00:32:50.232Z,11.86
2023-04-30T00:34:14.395Z,11.80
2023-04-30T00:35:41.870Z,11.80
2023-04-30T00:37:03.707Z,11.72
2023-04-30T00:38:25.041Z,11.66
2023-04-30T00:39:47.177Z,11.61
2023-04-30T00:41:10.695Z,11.56
2023-04-30T00:42:32.537Z,11.54
2023-04-30T00:43:54.439Z,11.45
2023-04-30T00:45:23.528Z,11.45
2023-04-30T00:46:47.802Z,11.42
2023-04-30T00:48:12.371Z,11.28
2023-04-30T00:49:34.263Z,11.20
2023-04-30T00:50:57.926Z,11.04
2023-04-30T00:52:21.895Z,10.97
2023-04-30T00:53:44.268Z,10.90
2023-04-30T00:55:05.502Z,10.90
2023-04-30T00:56:27.421Z,10.80
2023-04-30T00:57:49.252Z,10.72
2023-04-30T00:59:13.136Z,10.64
2023-04-30T01:00:47.124Z,10.55
2023-04-30T01:02:20.738Z,10.51
2023-04-30T01:03:57.021Z,10.42
2023-04-30T01:05:22.877Z,10.33
2023-04-30T01:06:47.474Z,10.30
2023-04-30T01:08:23.507Z,10.21
2023-04-30T01:09:57.271Z,10.14
2023-04-30T01:11:26.090Z,10.09
2023-04-30T01:12:57.728Z,10.06
2023-04-30T01:14:21.427Z,9.94
2023-04-30T01:15:45.673Z,9.85
2023-04-30T01:17:07.285Z,9.74
2023-04-30T01:18:30.126Z,9.72
2023-04-30T01:20:04.175Z,9.67
2023-04-30T01:21:30.720Z,9.63
2023-04-30T01:22:52.619Z,9.59
2023-04-30T01:24:13.840Z,9.58
2023-04-30T01:25:36.519Z,9.52
2023-04-30T01:27:07.716Z,9.53
2023-04-30T01:28:32.035Z,9.51
2023-04-30T01:29:56.235Z,9.50
2023-04-30T01:31:20.315Z,9.49
2023-04-30T01:32:42.591Z,9.42
2023-04-30T01:34:06.524Z,9.43
2023-04-30T01:35:30.738Z,9.42
2023-04-30T01:37:04.326Z,9.36
2023-04-30T01:38:26.332Z,9.30
2023-04-30T01:40:07.217Z,9.23
2023-04-30T01:41:43.852Z,9.15
2023-04-30T01:43:05.297Z,9.14
2023-04-30T01:44:26.952Z,9.11
2023-04-30T01:45:51.349Z,9.09
2023-04-30T01:47:24.256Z,9.08
2023-04-30T01:48:46.834Z,9.03
2023-04-30T01:50:12.884Z,8.99
2023-04-30T01:51:44.045Z,8.89
2023-04-30T01:53:17.638Z,8.84
2023-04-30T01:54:40.128Z,8.78
2023-04-30T01:56:01.769Z,8.73
2023-04-30T01:57:25.839Z,8.68
2023-04-30T01:58:47.652Z,8.65
2023-04-30T02:00:11.764Z,8.63
2023-04-30T02:01:39.119Z,8.55
2023-04-30T02:03:10.095Z,8.51
2023-04-30T02:04:39.849Z,8.44
2023-04-30T02:06:11.169Z,8.45
2023-04-30T02:07:38.020Z,8.36
2023-04-30T02:09:14.838Z,8.34
2023-04-30T02:10:44.022Z,8.32
2023-04-30T02:12:07.914Z,8.31
2023-04-30T02:13:29.907Z,8.30
2023-04-30T02:14:53.863Z,8.30
2023-04-30T02:16:15.458Z,8.33
2023-04-30T02:17:40.544Z,8.31
2023-04-30T02:19:02.297Z,8.30
2023-04-30T02:20:26.383Z,8.29
2023-04-30T02:22:00.119Z,8.29
2023-04-30T02:23:21.505Z,8.27
2023-04-30T02:24:45.638Z,8.26
2023-04-30T02:26:18.973Z,8.26
2023-04-30T02:27:41.356Z,8.27
2023-04-30T02:29:04.317Z,8.29
2023-04-30T02:30:37.313Z,8.23
2023-04-30T02:31:59.114Z,8.27
2023-04-30T02:33:25.257Z,8.28
2023-04-30T02:34:55.358Z,8.29
2023-04-30T02:36:17.122Z,8.28
2023-04-30T02:37:48.704Z,8.28
2023-04-30T02:39:12.182Z,8.31
2023-04-30T02:40:38.910Z,8.29
2023-04-30T02:42:12.287Z,8.30
2023-04-30T02:43:44.069Z,8.31
2023-04-30T02:45:07.618Z,8.32
2023-04-30T02:46:31.821Z,8.26
2023-04-30T02:48:02.622Z,8.25
2023-04-30T02:49:31.706Z,8.24
2023-04-30T02:51:05.187Z,8.24
2023-04-30T02:52:26.939Z,8.24
2023-04-30T02:54:00.425Z,8.19
2023-04-30T02:55:34.038Z,8.27
2023-04-30T02:56:55.795Z,8.29
2023-04-30T02:58:17.367Z,8.27
2023-04-30T02:59:53.483Z,8.27
2023-04-30T03:01:17.600Z,8.28
2023-04-30T03:02:42.958Z,8.20
2023-04-30T03:04:04.976Z,8.24
2023-04-30T03:05:34.450Z,8.22
2023-04-30T03:07:07.992Z,8.22
2023-04-30T03:08:29.846Z,8.26
2023-04-30T03:09:51.658Z,8.26
2023-04-30T03:11:24.656Z,8.26
2023-04-30T03:12:54.158Z,8.26
2023-04-30T03:14:15.644Z,8.24
2023-04-30T03:15:49.641Z,8.13
2023-04-30T03:17:11.734Z,8.23
2023-04-30T03:18:33.527Z,8.24
2023-04-30T03:19:55.425Z,8.23
2023-04-30T03:21:28.788Z,8.24
2023-04-30T03:23:02.662Z,8.24
2023-04-30T03:24:25.201Z,8.25
2023-04-30T03:25:47.716Z,8.24
2023-04-30T03:27:16.848Z,8.24
2023-04-30T03:28:39.309Z,8.21
2023-04-30T03:30:00.727Z,8.22
2023-04-30T03:31:24.726Z,8.23
2023-04-30T03:32:46.669Z,8.24
2023-04-30T03:34:08.136Z,8.23
2023-04-30T03:35:49.100Z,8.23
2023-04-30T03:37:12.739Z,8.25
2023-04-30T03:38:37.094Z,8.24
2023-04-30T03:40:00.725Z,8.25
2023-04-30T03:41:42.337Z,8.21
2023-04-30T03:43:03.652Z,8.19
2023-04-30T03:44:27.406Z,8.16
2023-04-30T03:46:09.131Z,8.13
2023-04-30T03:47:31.104Z,8.06
2023-04-30T03:48:55.169Z,8.07
2023-04-30T03:50:19.543Z,8.02
2023-04-30T03:51:49.150Z,7.99
2023-04-30T03:53:24.523Z,7.96
2023-04-30T03:54:53.718Z,7.96
2023-04-30T03:56:22.974Z,7.89
2023-04-30T03:57:54.887Z,7.86
2023-04-30T03:59:20.602Z,7.82
2023-04-30T04:00:50.190Z,7.80
2023-04-30T04:02:12.041Z,7.78
2023-04-30T04:03:46.278Z,7.77
2023-04-30T04:05:10.750Z,7.77
2023-04-30T04:06:47.724Z,7.73
2023-04-30T04:08:09.344Z,7.72
2023-04-30T04:09:33.353Z,7.69
2023-04-30T04:10:58.421Z,7.69
2023-04-30T04:12:19.831Z,7.69
2023-04-30T04:13:49.249Z,7.68
2023-04-30T04:15:24.981Z,7.70
2023-04-30T04:16:47.401Z,7.70
2023-04-30T04:18:20.378Z,7.70
2023-04-30T04:19:44.957Z,7.64
2023-04-30T04:21:08.606Z,7.65
2023-04-30T04:22:44.748Z,7.56
2023-04-30T04:24:08.602Z,7.61
2023-04-30T04:25:30.804Z,7.58
2023-04-30T04:26:59.956Z,7.57
2023-04-30T04:28:28.732Z,7.57
2023-04-30T04:29:58.350Z,7.56
2023-04-30T04:31:27.533Z,7.55
2023-04-30T04:33:00.214Z,7.55
2023-04-30T04:34:23.804Z,7.58
2023-04-30T04:36:05.415Z,7.56
2023-04-30T04:37:39.061Z,7.53
2023-04-30T04:39:23.956Z,7.55
2023-04-30T04:40:48.203Z,7.54
2023-04-30T04:42:19.894Z,7.57
2023-04-30T04:43:58.218Z,7.59
2023-04-30T04:45:21.642Z,7.62
2023-04-30T04:46:46.431Z,7.60
2023-04-30T04:48:10.511Z,7.65
2023-04-30T04:49:39.813Z,7.62
2023-04-30T04:51:12.708Z,7.65
2023-04-30T04:52:34.922Z,7.67
2023-04-30T04:53:56.736Z,7.67
2023-04-30T04:55:19.131Z,7.69
2023-04-30T04:56:46.532Z,7.71
2023-04-30T04:58:09.935Z,7.72
2023-04-30T04:59:34.197Z,7.73
2023-04-30T05:00:57.421Z,7.73
2023-04-30T05:02:23.628Z,7.76
2023-04-30T05:03:56.570Z,7.81
2023-04-30T05:05:25.545Z,7.80
2023-04-30T05:06:47.718Z,7.79
2023-04-30T05:08:12.001Z,7.79
2023-04-30T05:09:34.010Z,7.80
2023-04-30T05:11:05.864Z,7.84
2023-04-30T05:12:27.711Z,7.85
2023-04-30T05:13:52.093Z,7.85
2023-04-30T05:15:21.363Z,7.83
2023-04-30T05:16:50.546Z,7.92
2023-04-30T05:18:14.948Z,7.94
2023-04-30T05:19:37.390Z,7.97
2023-04-30T05:21:10.748Z,8.03
2023-04-30T05:22:35.058Z,8.05
2023-04-30T05:24:04.612Z,8.10
2023-04-30T05:25:28.641Z,8.10
2023-04-30T05:26:50.656Z,8.11
2023-04-30T05:28:15.232Z,8.17
2023-04-30T05:29:37.167Z,8.20
2023-04-30T05:31:21.780Z,8.28
2023-04-30T05:32:51.977Z,8.34
2023-04-30T05:34:25.123Z,8.35
2023-04-30T05:35:47.280Z,8.46
2023-04-30T05:37:23.648Z,8.45
2023-04-30T05:39:05.627Z,8.42
2023-04-30T05:40:46.647Z,8.51
2023-04-30T05:42:08.397Z,8.54
2023-04-30T05:43:32.652Z,8.59
2023-04-30T05:45:01.604Z,8.62
2023-04-30T05:46:31.019Z,8.63
2023-04-30T05:48:02.695Z,8.63
2023-04-30T05:49:33.676Z,8.64
2023-04-30T05:50:56.804Z,8.72
2023-04-30T05:52:30.133Z,8.81
2023-04-30T05:53:51.794Z,8.84
2023-04-30T05:55:13.006Z,8.85
2023-04-30T05:56:34.966Z,8.87
2023-04-30T05:57:56.811Z,8.98
2023-04-30T05:59:25.660Z,9.06
2023-04-30T06:01:18.928Z,9.11
2023-04-30T06:02:43.475Z,9.16
2023-04-30T06:04:12.412Z,9.21
2023-04-30T06:05:42.264Z,9.23
2023-04-30T06:07:03.562Z,9.28
2023-04-30T06:08:44.612Z,9.28
2023-04-30T06:10:09.343Z,9.32
2023-04-30T06:11:40.411Z,9.30
2023-04-30T06:13:05.721Z,9.31
2023-04-30T06:14:35.076Z,9.29
2023-04-30T06:15:56.780Z,9.31
2023-04-30T06:17:20.789Z,9.34
2023-04-30T06:18:43.373Z,9.36
2023-04-30T06:20:28.203Z,9.41
2023-04-30T06:21:52.649Z,9.46
2023-04-30T06:23:14.170Z,9.53
2023-04-30T06:24:38.307Z,9.60
2023-04-30T06:26:14.913Z,9.69
2023-04-30T06:27:37.085Z,9.69
2023-04-30T06:29:05.991Z,9.68
2023-04-30T06:30:28.155Z,9.71
2023-04-30T06:32:04.320Z,9.77
2023-04-30T06:33:26.798Z,9.86
2023-04-30T06:34:48.451Z,9.88
2023-04-30T06:36:10.041Z,9.87
2023-04-30T06:37:38.144Z,9.90
2023-04-30T06:39:11.687Z,9.92
2023-04-30T06:40:39.053Z,9.98
2023-04-30T06:42:01.038Z,10.07
2023-04-30T06:43:42.364Z,10.13
2023-04-30T06:45:03.893Z,10.13
2023-04-30T06:46:27.825Z,10.11
2023-04-30T06:48:03.676Z,10.15
2023-04-30T06:49:32.511Z,10.23
2023-04-30T06:51:05.919Z,10.26
2023-04-30T06:52:27.882Z,10.31
2023-04-30T06:54:00.916Z,10.34
2023-04-30T06:55:24.729Z,10.36
2023-04-30T06:56:57.918Z,10.33
2023-04-30T06:58:33.778Z,10.36
2023-04-30T07:00:08.332Z,10.36
2023-04-30T07:01:29.994Z,10.37
2023-04-30T07:02:56.345Z,10.41
2023-04-30T07:04:25.380Z,10.43
2023-04-30T07:05:47.485Z,10.47
2023-04-30T07:07:22.545Z,10.51
2023-04-30T07:08:47.096Z,10.49
2023-04-30T07:10:27.615Z,10.41
2023-04-30T07:11:51.832Z,10.38
2023-04-30T07:13:13.461Z,10.34
2023-04-30T07:14:47.094Z,10.44
2023-04-30T07:16:36.171Z,10.48
2023-04-30T07:18:05.403Z,10.56
2023-04-30T07:19:41.032Z,10.64
2023-04-30T07:21:02.408Z,10.70
2023-04-30T07:22:24.108Z,10.72
2023-04-30T07:23:57.723Z,10.76
2023-04-30T07:25:33.388Z,10.81
2023-04-30T07:27:07.422Z,10.80
2023-04-30T07:28:40.872Z,10.89
2023-04-30T07:30:13.919Z,11.00
2023-04-30T07:31:47.705Z,11.07
2023-04-30T07:33:11.589Z,11.10
2023-04-30T07:34:56.880Z,11.17
2023-04-30T07:36:23.146Z,11.21
2023-04-30T07:37:47.899Z,11.19
2023-04-30T07:39:21.206Z,11.19
2023-04-30T07:41:02.249Z,11.25
2023-04-30T07:42:33.668Z,11.29
2023-04-30T07:44:18.752Z,11.45
2023-04-30T07:45:54.893Z,11.38
2023-04-30T07:47:20.812Z,11.47
2023-04-30T07:48:54.487Z,11.49
2023-04-30T07:50:35.171Z,11.53
2023-04-30T07:52:15.736Z,11.53
2023-04-30T07:53:49.578Z,11.49
2023-04-30T07:55:11.416Z,11.44
2023-04-30T07:56:42.890Z,11.45
2023-04-30T07:58:06.569Z,11.46
2023-04-30T07:59:50.393Z,11.47
2023-04-30T08:01:23.640Z,11.40
2023-04-30T08:03:00.397Z,11.33
2023-04-30T08:04:22.389Z,11.28
2023-04-30T08:05:56.220Z,11.29
2023-04-30T08:07:25.459Z,11.25
2023-04-30T08:08:59.049Z,11.29
2023-04-30T08:10:44.036Z,11.36
2023-04-30T08:12:05.617Z,11.48
2023-04-30T08:13:39.184Z,11.45
2023-04-30T08:15:33.094Z,11.39
2023-04-30T08:17:18.023Z,11.45
2023-04-30T08:18:44.933Z,11.47
2023-04-30T08:22:14.419Z,11.61
2023-04-30T08:23:43.446Z,11.56
2023-04-30T08:25:07.462Z,11.57
2023-04-30T08:26:31.420Z,11.73
2023-04-30T08:27:56.534Z,11.80
2023-04-30T08:29:30.011Z,11.92
2023-04-30T08:31:05.699Z,11.94
2023-04-30T08:32:46.969Z,11.98
2023-04-30T08:34:08.563Z,12.01
2023-04-30T08:35:32.506Z,11.95
2023-04-30T08:36:57.473Z,11.92
2023-04-30T08:38:31.644Z,11.87
2023-04-30T08:40:19.107Z,11.81
2023-04-30T08:41:55.838Z,11.79
2023-04-30T08:43:17.429Z,11.94
2023-04-30T08:44:47.077Z,11.95
2023-04-30T08:46:32.518Z,11.90
2023-04-30T08:48:10.793Z,11.94
2023-04-30T08:49:51.701Z,11.96
2023-04-30T08:51:15.511Z,11.82
2023-04-30T08:52:40.090Z,11.74
2023-04-30T08:54:16.441Z,11.52
2023-04-30T08:55:38.692Z,11.69
2023-04-30T08:57:12.117Z,11.70
2023-04-30T08:58:45.732Z,11.62
2023-04-30T09:00:30.662Z,11.83
2023-04-30T09:02:07.386Z,11.88
2023-04-30T09:03:47.434Z,11.97
2023-04-30T09:05:24.217Z,11.95
2023-04-30T09:07:09.694Z,11.96
2023-04-30T09:08:59.621Z,12.05
2023-04-30T09:10:53.592Z,12.00
2023-04-30T09:12:26.729Z,11.94
2023-04-30T09:14:13.277Z,11.96
2023-04-30T09:15:47.661Z,11.87
2023-04-30T09:17:28.159Z,12.13
2023-04-30T09:19:08.697Z,12.15
2023-04-30T09:20:32.895Z,12.17
2023-04-30T09:22:17.725Z,12.15
2023-04-30T09:23:51.446Z,12.12
2023-04-30T09:25:13.211Z,12.15
2023-04-30T09:26:37.396Z,12.29
2023-04-30T09:28:06.257Z,12.35
2023-04-30T09:29:37.758Z,12.34
2023-04-30T09:31:11.260Z,12.45
2023-04-30T09:32:35.524Z,12.52
2023-04-30T09:34:05.001Z,12.57
2023-04-30T09:35:29.325Z,12.67
2023-04-30T09:37:07.374Z,12.68
2023-04-30T09:38:43.259Z,12.75
2023-04-30T09:40:04.744Z,12.74
2023-04-30T09:41:28.764Z,12.73
2023-04-30T09:43:05.858Z,12.69
2023-04-30T09:44:40.232Z,12.69
2023-04-30T09:46:11.965Z,12.80
2023-04-30T09:47:48.017Z,12.85
2023-04-30T09:49:28.321Z,12.90
2023-04-30T09:50:59.795Z,12.95
2023-04-30T09:52:21.193Z,12.91
2023-04-30T09:53:57.446Z,13.00
2023-04-30T09:55:24.004Z,13.19
2023-04-30T09:56:46.350Z,13.25
2023-04-30T09:58:07.935Z,13.31
2023-04-30T09:59:44.542Z,13.31
2023-04-30T10:01:18.503Z,13.39
2023-04-30T10:02:42.977Z,13.41
2023-04-30T10:04:04.654Z,13.44
2023-04-30T10:05:28.628Z,13.46
2023-04-30T10:06:53.000Z,13.37
2023-04-30T10:08:14.245Z,13.34
2023-04-30T10:09:36.837Z,13.38
2023-04-30T10:10:58.379Z,13.49
2023-04-30T10:12:20.394Z,13.55
2023-04-30T10:13:42.443Z,13.64
2023-04-30T10:15:06.567Z,13.70
2023-04-30T10:16:47.344Z,13.75
2023-04-30T10:18:16.424Z,13.77
2023-04-30T10:19:47.725Z,13.78
2023-04-30T10:21:12.041Z,13.83
2023-04-30T10:22:38.556Z,13.91
2023-04-30T10:24:02.572Z,13.93
2023-04-30T10:25:53.007Z,14.01
2023-04-30T10:27:33.337Z,13.98
2023-04-30T10:28:59.009Z,14.03
2023-04-30T10:30:22.956Z,14.00
2023-04-30T10:31:59.148Z,13.96
2023-04-30T10:33:30.301Z,14.00
2023-04-30T10:35:06.246Z,14.12
2023-04-30T10:36:47.191Z,14.23
2023-04-30T10:38:11.063Z,14.25
2023-04-30T10:39:35.096Z,14.19
2023-04-30T10:41:10.750Z,14.22
2023-04-30T10:42:32.750Z,14.28
2023-04-30T10:43:54.674Z,14.38
2023-04-30T10:45:20.923Z,14.56
2023-04-30T10:46:43.367Z,14.73
2023-04-30T10:48:07.426Z,14.94
2023-04-30T10:49:31.738Z,15.10
2023-04-30T10:51:05.552Z,15.20
2023-04-30T10:52:39.206Z,15.35
2023-04-30T10:54:01.002Z,15.49
2023-04-30T10:55:27.823Z,15.53
2023-04-30T10:56:49.676Z,15.64
2023-04-30T10:58:15.855Z,15.85
2023-04-30T10:59:57.348Z,15.92
2023-04-30T11:01:19.054Z,15.97
2023-04-30T11:02:49.488Z,16.00
2023-04-30T11:04:11.014Z,16.06
2023-04-30T11:05:32.886Z,16.14
2023-04-30T11:06:54.545Z,16.19
2023-04-30T11:08:23.644Z,16.13
2023-04-30T11:09:57.832Z,15.99
2023-04-30T11:11:22.122Z,15.91
2023-04-30T11:12:44.446Z,15.94
2023-04-30T11:14:06.004Z,16.00
2023-04-30T11:15:27.947Z,16.01
2023-04-30T11:16:52.427Z,15.90
2023-04-30T11:18:16.337Z,15.96
2023-04-30T11:19:38.567Z,16.12
2023-04-30T11:21:09.541Z,16.33
2023-04-30T11:22:35.888Z,16.46
2023-04-30T11:23:57.726Z,16.52
2023-04-30T11:25:19.155Z,16.59
2023-04-30T11:26:41.423Z,16.72
2023-04-30T11:28:03.128Z,16.95
2023-04-30T11:29:24.558Z,17.15
2023-04-30T11:30:46.397Z,17.32
2023-04-30T11:32:07.995Z,17.44
2023-04-30T11:33:30.086Z,17.51
2023-04-30T11:34:51.910Z,17.56
2023-04-30T11:36:13.407Z,17.75
2023-04-30T11:37:35.106Z,17.64
2023-04-30T11:38:57.134Z,17.41
2023-04-30T11:40:30.666Z,17.31
2023-04-30T11:41:55.040Z,17.36
2023-04-30T11:43:16.389Z,17.45
2023-04-30T11:44:38.767Z,17.59
2023-04-30T11:46:09.726Z,17.71
2023-04-30T11:47:39.406Z,17.92
2023-04-30T11:49:00.917Z,17.96
2023-04-30T11:50:29.987Z,18.05
2023-04-30T11:51:54.853Z,18.14
2023-04-30T11:53:28.118Z,18.15
2023-04-30T11:55:01.824Z,18.13
2023-04-30T11:56:33.141Z,18.18
2023-04-30T11:58:05.876Z,18.20
2023-04-30T11:59:27.445Z,18.29
2023-04-30T12:00:52.104Z,18.46
2023-04-30T12:02:25.693Z,18.43
2023-04-30T12:03:50.579Z,18.18
2023-04-30T12:05:17.359Z,18.01
2023-04-30T12:06:39.808Z,17.83
2023-04-30T12:08:12.971Z,17.81
2023-04-30T12:09:48.816Z,17.83
2023-04-30T12:11:10.403Z,17.95
2023-04-30T12:12:32.242Z,18.15
2023-04-30T12:14:22.532Z,18.31
2023-04-30T12:15:44.560Z,18.39
2023-04-30T12:17:06.236Z,18.58
2023-04-30T12:18:27.975Z,18.72
2023-04-30T12:19:52.214Z,18.75
2023-04-30T12:21:15.720Z,18.78
2023-04-30T12:22:45.171Z,18.72
2023-04-30T12:24:07.248Z,18.60
2023-04-30T12:25:31.238Z,18.59
2023-04-30T12:26:53.271Z,18.60
2023-04-30T12:28:17.195Z,18.63
2023-04-30T12:29:50.931Z,18.79
2023-04-30T12:31:20.338Z,18.79
2023-04-30T12:32:43.062Z,18.99
2023-04-30T12:34:04.696Z,19.14
2023-04-30T12:35:28.396Z,19.30
2023-04-30T12:36:50.140Z,19.32
2023-04-30T12:38:23.562Z,19.18
2023-04-30T12:39:48.534Z,19.19
2023-04-30T12:41:19.225Z,19.32
2023-04-30T12:42:55.631Z,19.33
2023-04-30T12:44:16.953Z,19.18
2023-04-30T12:45:40.976Z,19.14
2023-04-30T12:47:14.563Z,19.23
2023-04-30T12:48:44.055Z,19.24
2023-04-30T12:50:07.732Z,19.09
2023-04-30T12:51:30.127Z,19.01
2023-04-30T12:53:13.537Z,19.14
2023-04-30T12:54:38.076Z,19.62
2023-04-30T12:56:08.099Z,19.91
2023-04-30T12:57:32.126Z,19.93
2023-04-30T12:58:56.998Z,19.93
2023-04-30T13:00:18.595Z,20.13
2023-04-30T13:01:41.003Z,20.46
2023-04-30T13:03:02.904Z,20.79
2023-04-30T13:04:35.478Z,20.95
2023-04-30T13:06:13.972Z,20.70
2023-04-30T13:07:49.907Z,20.30
2023-04-30T13:09:13.409Z,20.02
2023-04-30T13:10:54.876Z,19.79
2023-04-30T13:12:16.717Z,19.77
2023-04-30T13:13:40.896Z,19.78
2023-04-30T13:15:14.058Z,19.79
2023-04-30T13:16:38.029Z,19.95
2023-04-30T13:18:12.152Z,20.02
2023-04-30T13:19:36.258Z,20.13
2023-04-30T13:21:00.904Z,20.10
2023-04-30T13:22:34.555Z,20.01
2023-04-30T13:24:03.871Z,20.09
2023-04-30T13:25:39.802Z,20.13
2023-04-30T13:27:04.174Z,20.16
2023-04-30T13:28:28.311Z,20.16
2023-04-30T13:29:54.988Z,20.40
2023-04-30T13:31:19.289Z,20.44
2023-04-30T13:32:48.747Z,20.30
2023-04-30T13:34:25.016Z,20.28
2023-04-30T13:35:47.736Z,20.42
2023-04-30T13:37:09.340Z,20.65
2023-04-30T13:38:33.208Z,20.76
2023-04-30T13:40:03.666Z,20.62
2023-04-30T13:41:32.232Z,20.69
2023-04-30T13:43:03.566Z,20.70
2023-04-30T13:44:36.805Z,20.61
2023-04-30T13:45:58.949Z,20.62
2023-04-30T13:47:21.406Z,20.74
2023-04-30T13:48:55.005Z,20.64
2023-04-30T13:50:18.597Z,20.60
2023-04-30T13:51:40.841Z,20.72
2023-04-30T13:53:02.425Z,20.77
2023-04-30T13:54:38.240Z,20.81
2023-04-30T13:56:00.310Z,21.00
2023-04-30T13:57:21.864Z,21.11
2023-04-30T13:58:46.611Z,21.14
2023-04-30T14:00:13.351Z,21.33
2023-04-30T14:01:35.246Z,21.47
2023-04-30T14:02:57.353Z,21.63
2023-04-30T14:04:38.185Z,21.90
2023-04-30T14:06:00.006Z,21.90
2023-04-30T14:07:33.584Z,21.95
2023-04-30T14:08:55.608Z,21.92
2023-04-30T14:10:16.961Z,21.84
2023-04-30T14:11:51.170Z,21.66
2023-04-30T14:13:31.879Z,21.78
2023-04-30T14:14:56.485Z,21.81
2023-04-30T14:16:37.532Z,21.37
2023-04-30T14:18:22.476Z,21.31
2023-04-30T14:19:49.483Z,21.36
2023-04-30T14:21:11.576Z,21.30
2023-04-30T14:22:46.376Z,21.25
2023-04-30T14:24:08.658Z,21.25
2023-04-30T14:25:54.068Z,21.03
2023-04-30T14:27:15.596Z,20.89
2023-04-30T14:28:37.767Z,20.88
2023-04-30T14:29:59.433Z,20.70
2023-04-30T14:31:28.725Z,20.68
2023-04-30T14:33:04.375Z,20.96
2023-04-30T14:34:28.030Z,21.30
2023-04-30T14:36:04.299Z,21.56
2023-04-30T14:37:27.809Z,21.51
2023-04-30T14:38:49.743Z,21.56
2023-04-30T14:40:11.405Z,21.58
2023-04-30T14:41:33.268Z,21.54
2023-04-30T14:42:57.349Z,21.45
2023-04-30T14:44:30.774Z,21.48
2023-04-30T14:45:53.290Z,21.45
2023-04-30T14:47:17.301Z,21.31
2023-04-30T14:48:44.130Z,21.23
2023-04-30T14:50:13.263Z,21.13
2023-04-30T14:51:42.655Z,21.05
2023-04-30T14:53:16.101Z,20.93
2023-04-30T14:54:38.129Z,20.69
2023-04-30T14:55:59.842Z,20.88
2023-04-30T14:57:23.468Z,20.94
2023-04-30T14:58:48.152Z,21.08
2023-04-30T15:00:19.092Z,21.03
2023-04-30T15:01:43.130Z,21.09
2023-04-30T15:03:04.699Z,21.15
2023-04-30T15:04:33.981Z,21.39
2023-04-30T15:05:55.999Z,21.58
2023-04-30T15:07:29.220Z,21.54
2023-04-30T15:08:53.389Z,21.53
2023-04-30T15:10:14.747Z,21.73
2023-04-30T15:11:38.577Z,21.77
2023-04-30T15:13:02.599Z,21.74
2023-04-30T15:14:31.958Z,21.86
2023-04-30T15:16:05.681Z,21.94
2023-04-30T15:17:30.231Z,21.70
2023-04-30T15:18:52.338Z,21.44
2023-04-30T15:20:13.704Z,21.56
2023-04-30T15:21:35.595Z,21.70
2023-04-30T15:23:00.113Z,21.78
2023-04-30T15:24:26.189Z,21.85
2023-04-30T15:25:50.882Z,21.89
2023-04-30T15:27:24.160Z,22.00
2023-04-30T15:28:48.441Z,22.06
2023-04-30T15:30:10.337Z,21.96
2023-04-30T15:31:32.909Z,21.87
2023-04-30T15:32:54.948Z,21.70
2023-04-30T15:34:16.545Z,21.52
2023-04-30T15:35:38.649Z,21.15
2023-04-30T15:37:00.385Z,20.74
2023-04-30T15:38:31.621Z,20.47
2023-04-30T15:39:53.587Z,20.14
2023-04-30T15:41:22.896Z,19.93
2023-04-30T15:42:45.058Z,20.05
2023-04-30T15:44:09.254Z,20.38
2023-04-30T15:45:43.168Z,20.51
2023-04-30T15:47:04.837Z,20.59
2023-04-30T15:48:26.555Z,20.54
2023-04-30T15:49:57.990Z,20.55
2023-04-30T15:51:19.566Z,20.44
2023-04-30T15:52:43.688Z,20.33
2023-04-30T15:54:07.355Z,20.30
2023-04-30T15:55:29.368Z,20.44
2023-04-30T15:56:51.720Z,20.53
2023-04-30T15:58:13.212Z,20.42
2023-04-30T15:59:34.793Z,20.24
2023-04-30T16:00:59.014Z,20.30
2023-04-30T16:02:23.238Z,20.25
2023-04-30T16:03:45.206Z,20.01
2023-04-30T16:05:07.156Z,19.81
2023-04-30T16:06:29.848Z,19.58
2023-04-30T16:07:52.048Z,19.47
2023-04-30T16:09:13.512Z,19.27
2023-04-30T16:10:49.158Z,19.14
2023-04-30T16:12:11.054Z,19.22
2023-04-30T16:13:40.323Z,19.25
2023-04-30T16:15:04.619Z,19.39
2023-04-30T16:16:27.874Z,19.45
2023-04-30T16:17:52.793Z,19.34
2023-04-30T16:19:21.448Z,19.18
2023-04-30T16:20:43.382Z,19.01
2023-04-30T16:22:12.308Z,18.76
2023-04-30T16:23:36.369Z,18.36
2023-04-30T16:25:10.109Z,18.15
2023-04-30T16:26:43.849Z,17.69
2023-04-30T16:28:08.166Z,17.10
2023-04-30T16:29:41.946Z,16.63
2023-04-30T16:31:06.107Z,16.32
2023-04-30T16:32:50.647Z,16.10
2023-04-30T16:34:19.823Z,15.79
2023-04-30T16:35:51.751Z,15.48
2023-04-30T16:37:13.773Z,15.16
2023-04-30T16:38:35.537Z,14.95
2023-04-30T16:39:57.692Z,14.78
2023-04-30T16:41:21.623Z,14.66
2023-04-30T16:42:44.014Z,14.48
2023-04-30T16:44:13.222Z,14.32
2023-04-30T16:45:37.484Z,14.16
2023-04-30T16:47:02.638Z,14.04
2023-04-30T16:48:24.162Z,13.89
2023-04-30T16:49:48.500Z,13.70
2023-04-30T16:51:12.310Z,13.58
2023-04-30T16:52:34.170Z,13.40
2023-04-30T16:53:56.136Z,13.26
2023-04-30T16:55:27.428Z,13.14
2023-04-30T16:56:49.426Z,13.08
2023-04-30T16:58:11.179Z,13.04
2023-04-30T16:59:32.904Z,13.00
2023-04-30T17:01:01.950Z,12.92
2023-04-30T17:02:26.010Z,12.85
2023-04-30T17:03:50.748Z,12.77
2023-04-30T17:05:12.568Z,12.72
2023-04-30T17:06:41.702Z,12.68
2023-04-30T17:08:06.067Z,12.59
2023-04-30T17:09:30.350Z,12.54
2023-04-30T17:10:56.734Z,12.51
2023-04-30T17:12:18.606Z,12.47
2023-04-30T17:13:54.720Z,12.41
2023-04-30T17:15:19.080Z,12.36
2023-04-30T17:16:43.802Z,12.32
2023-04-30T17:18:15.205Z,12.30
2023-04-30T17:19:36.978Z,12.24
2023-04-30T17:20:58.426Z,12.19
2023-04-30T17:22:22.056Z,12.16
2023-04-30T17:23:44.128Z,12.10
2023-04-30T17:25:06.061Z,12.04
2023-04-30T17:26:27.540Z,11.98
2023-04-30T17:27:56.720Z,11.89
2023-04-30T17:29:19.707Z,11.89
2023-04-30T17:30:44.594Z,11.85
2023-04-30T17:32:11.029Z,11.80
2023-04-30T17:33:34.737Z,11.77
2023-04-30T17:34:57.798Z,11.72
2023-04-30T17:36:31.441Z,11.68
2023-04-30T17:37:53.639Z,11.63
2023-04-30T17:39:15.108Z,11.59
2023-04-30T17:40:39.736Z,11.55
2023-04-30T17:42:01.505Z,11.50
2023-04-30T17:43:23.002Z,11.46
2023-04-30T17:44:44.931Z,11.43
2023-04-30T17:46:06.837Z,11.38
2023-04-30T17:47:32.303Z,11.34
2023-04-30T17:48:54.095Z,11.30
2023-04-30T17:50:15.858Z,11.24
2023-04-30T17:51:37.653Z,11.20
2023-04-30T17:52:59.817Z,11.17
2023-04-30T17:54:21.241Z,11.12
2023-04-30T17:55:43.510Z,11.08
2023-04-30T17:57:12.473Z,11.05
2023-04-30T17:58:49.599Z,11.00
2023-04-30T18:00:10.968Z,10.96
2023-04-30T18:01:37.586Z,10.92
2023-04-30T18:02:59.411Z,10.87
2023-04-30T18:04:21.169Z,10.82
2023-04-30T18:05:43.097Z,10.79
2023-04-30T18:07:05.154Z,10.74
2023-04-30T18:08:28.624Z,10.70
2023-04-30T18:09:52.543Z,10.66
2023-04-30T18:11:16.703Z,10.61
2023-04-30T18:12:41.238Z,10.56
2023-04-30T18:14:04.702Z,10.51
2023-04-30T18:15:27.644Z,10.46
2023-04-30T18:16:56.963Z,10.40
2023-04-30T18:18:18.560Z,10.33
2023-04-30T18:19:44.319Z,10.28
2023-04-30T18:21:08.589Z,10.24
2023-04-30T18:22:30.589Z,10.21
2023-04-30T18:23:52.794Z,10.17
2023-04-30T18:25:14.351Z,10.14
2023-04-30T18:26:36.896Z,10.10
2023-04-30T18:27:59.654Z,10.06
2023-04-30T18:29:23.672Z,10.02
2023-04-30T18:30:45.451Z,10.00
2023-04-30T18:32:07.137Z,9.96
2023-04-30T18:33:31.783Z,9.96
2023-04-30T18:34:53.851Z,9.94
2023-04-30T18:36:28.170Z,9.91
2023-04-30T18:37:50.232Z,9.88
2023-04-30T18:39:12.385Z,9.85
2023-04-30T18:40:34.502Z,9.82
2023-04-30T18:41:56.643Z,9.79
2023-04-30T18:43:25.664Z,9.70
2023-04-30T18:45:02.805Z,9.75
2023-04-30T18:46:24.879Z,9.71
2023-04-30T18:47:54.824Z,9.67
2023-04-30T18:49:21.230Z,9.63
2023-04-30T18:50:53.030Z,9.58
2023-04-30T18:52:22.444Z,9.57
2023-04-30T18:53:47.820Z,9.54
2023-04-30T18:55:12.684Z,9.53
2023-04-30T18:56:42.418Z,9.47
2023-04-30T18:58:06.162Z,9.51
2023-04-30T18:59:35.139Z,9.50
2023-04-30T19:00:57.779Z,9.49